Time;durP1;ratioP1;P1;durP2;ratioP2;P2;SDS_P1;SDS_P2;PMS_P1;PMS_P2;Temp;Humidity;BMP_temperature;BMP_pressure;BME280_temperature;BME280_humidity;BME280_pressure;Samples;Min_cycle;Max_cycle;Signal;HPM_P1;HPM_P2
2022/07/27 00:00:49;;;;;;;2.25;1.00;;;24.10;52.10;;;;;;5023548;28;20032;-67
2022/07/27 00:03:15;;;;;;;2.00;0.90;;;24.10;52.10;;;;;;5028929;28;20033;-67
2022/07/27 00:05:41;;;;;;;4.40;1.00;;;24.10;52.10;;;;;;5027071;28;20017;-67
2022/07/27 00:08:06;;;;;;;1.70;1.00;;;24.20;52.20;;;;;;5026371;28;20030;-67
2022/07/27 00:10:33;;;;;;;3.45;1.20;;;24.10;52.20;;;;;;5026088;28;20052;-67
2022/07/27 00:12:58;;;;;;;2.17;1.10;;;24.10;52.20;;;;;;5021846;28;20037;-67
2022/07/27 00:15:24;;;;;;;1.67;0.80;;;24.10;52.20;;;;;;5027485;28;20080;-67
2022/07/27 00:17:50;;;;;;;2.08;1.00;;;24.10;52.20;;;;;;5025979;28;20041;-67
2022/07/27 00:20:15;;;;;;;2.97;1.05;;;24.10;52.20;;;;;;5027064;28;20106;-67
2022/07/27 00:22:41;;;;;;;1.20;0.82;;;24.10;52.30;;;;;;5028771;28;20087;-67
2022/07/27 00:25:07;;;;;;;1.88;0.90;;;24.10;52.30;;;;;;5025715;28;20536;-68
2022/07/27 00:27:33;;;;;;;2.42;1.13;;;24.00;52.20;;;;;;5026554;28;20528;-67
2022/07/27 00:29:58;;;;;;;2.95;1.08;;;24.00;52.30;;;;;;5027022;28;20527;-67
2022/07/27 00:32:24;;;;;;;2.42;1.10;;;24.00;52.30;;;;;;5026423;28;20406;-67
2022/07/27 00:34:49;;;;;;;3.22;1.00;;;24.00;52.30;;;;;;5027909;28;20502;-67
2022/07/27 00:37:15;;;;;;;3.10;1.10;;;24.00;52.30;;;;;;5053886;28;20552;-67
2022/07/27 00:39:42;;;;;;;3.15;1.20;;;24.00;52.30;;;;;;5027441;28;20556;-67
2022/07/27 00:42:08;;;;;;;2.90;1.20;;;24.00;52.30;;;;;;5025720;28;20052;-67
2022/07/27 00:44:34;;;;;;;2.85;1.10;;;24.00;52.30;;;;;;5025900;28;20033;-67
2022/07/27 00:47:00;;;;;;;2.80;1.00;;;24.00;52.40;;;;;;5027343;28;20493;-67
2022/07/27 00:49:25;;;;;;;1.65;0.80;;;24.00;52.40;;;;;;5027409;28;20029;-67
2022/07/27 00:51:51;;;;;;;2.03;1.02;;;24.00;52.30;;;;;;5025365;28;20099;-67
2022/07/27 00:54:17;;;;;;;2.95;1.20;;;24.00;52.40;;;;;;5027645;28;20038;-67
2022/07/27 00:56:43;;;;;;;2.72;1.10;;;24.00;52.40;;;;;;5027463;28;20602;-67
2022/07/27 00:59:10;;;;;;;2.60;0.93;;;24.00;52.40;;;;;;5025079;28;20240;-68
2022/07/27 01:01:35;;;;;;;3.65;1.10;;;23.90;52.30;;;;;;5027654;28;20048;-67
2022/07/27 01:04:01;;;;;;;1.67;1.10;;;23.90;52.50;;;;;;5027937;28;20490;-67
2022/07/27 01:06:27;;;;;;;3.92;1.27;;;23.90;52.40;;;;;;5026804;28;20494;-67
2022/07/27 01:09:55;;;;;;;1.50;0.90;;;23.90;52.40;;;;;;5025899;28;20047;-67
2022/07/27 01:11:39;;;;;;;2.78;1.00;;;23.90;52.50;;;;;;5026776;28;20030;-67
2022/07/27 01:14:06;;;;;;;1.98;0.90;;;23.90;52.50;;;;;;5025002;28;20087;-67
2022/07/27 01:16:31;;;;;;;1.92;1.08;;;23.90;52.50;;;;;;5024276;28;20116;-67
2022/07/27 01:18:57;;;;;;;2.15;0.93;;;23.90;52.50;;;;;;5025294;28;20124;-67
2022/07/27 01:21:23;;;;;;;2.22;1.00;;;23.80;52.50;;;;;;5024962;28;20029;-67
2022/07/27 01:23:48;;;;;;;2.70;1.10;;;23.80;52.50;;;;;;5026366;28;20056;-67
2022/07/27 01:26:14;;;;;;;2.63;0.80;;;23.80;52.50;;;;;;5026237;28;20397;-67
2022/07/27 01:28:42;;;;;;;2.22;1.02;;;23.80;52.50;;;;;;5026831;28;20449;-68
2022/07/27 01:31:08;;;;;;;3.33;1.02;;;23.80;52.50;;;;;;5026461;28;20072;-67
2022/07/27 01:33:34;;;;;;;1.73;0.95;;;23.80;52.60;;;;;;5023626;28;20437;-67
2022/07/27 01:35:59;;;;;;;2.13;0.98;;;23.80;52.60;;;;;;5025459;28;20031;-67
2022/07/27 01:38:25;;;;;;;2.45;1.02;;;23.80;52.60;;;;;;5026389;28;20490;-67
2022/07/27 01:40:51;;;;;;;3.53;1.10;;;23.80;52.60;;;;;;5025761;28;20025;-67
2022/07/27 01:43:17;;;;;;;2.25;0.90;;;23.80;52.60;;;;;;5025474;28;20030;-68
2022/07/27 01:45:43;;;;;;;1.95;1.23;;;23.80;52.60;;;;;;5025740;28;20021;-67
2022/07/27 01:48:09;;;;;;;3.65;1.00;;;23.80;52.70;;;;;;5025745;28;20021;-66
2022/07/27 01:50:34;;;;;;;1.48;0.95;;;23.80;52.70;;;;;;5023873;28;20041;-67
2022/07/27 01:53:00;;;;;;;1.92;1.17;;;23.80;52.70;;;;;;5023652;28;20037;-67
2022/07/27 01:55:26;;;;;;;2.67;1.08;;;23.70;52.60;;;;;;5024218;28;20148;-68
2022/07/27 01:57:51;;;;;;;2.42;0.93;;;23.80;52.70;;;;;;5025727;28;20095;-67
2022/07/27 02:00:17;;;;;;;3.42;1.23;;;23.80;52.70;;;;;;5025574;28;20021;-67
2022/07/27 02:02:43;;;;;;;2.05;1.00;;;23.70;52.70;;;;;;5025024;28;20029;-67
2022/07/27 02:05:11;;;;;;;1.30;0.80;;;23.70;52.70;;;;;;5027195;28;20029;-67
2022/07/27 02:07:40;;;;;;;2.78;1.00;;;23.70;52.70;;;;;;5024306;28;20186;-67
2022/07/27 02:10:07;;;;;;;1.92;0.80;;;23.70;52.80;;;;;;5023138;28;20038;-67
2022/07/27 02:12:35;;;;;;;2.72;1.00;;;23.70;52.80;;;;;;5026363;28;20025;-67
2022/07/27 02:15:11;;;;;;;2.05;1.00;;;23.70;52.80;;;;;;5026410;28;20030;-67
2022/07/27 02:17:38;;;;;;;3.40;1.00;;;23.70;52.90;;;;;;5023297;28;20104;-67
2022/07/27 02:20:04;;;;;;;1.80;0.98;;;23.70;52.90;;;;;;5027417;28;20110;-67
2022/07/27 02:22:30;;;;;;;1.05;0.70;;;23.70;52.90;;;;;;5021070;28;20061;-67
2022/07/27 02:24:56;;;;;;;1.35;0.90;;;23.70;52.90;;;;;;5025416;28;20026;-67
2022/07/27 02:27:21;;;;;;;2.58;1.02;;;23.70;52.90;;;;;;5023439;28;20033;-67
2022/07/27 02:29:47;;;;;;;2.60;1.08;;;23.60;52.80;;;;;;5024812;28;20091;-68
2022/07/27 02:32:13;;;;;;;1.75;0.90;;;23.60;52.80;;;;;;5025574;28;20033;-67
2022/07/27 02:34:38;;;;;;;2.35;1.10;;;23.60;52.80;;;;;;5022372;28;20033;-67
2022/07/27 02:37:04;;;;;;;1.45;0.80;;;23.60;52.80;;;;;;5025556;28;20022;-68
2022/07/27 02:39:29;;;;;;;1.70;0.98;;;23.60;52.80;;;;;;5023207;28;20044;-67
2022/07/27 02:41:55;;;;;;;2.83;1.10;;;23.60;52.90;;;;;;5021571;28;20037;-67
2022/07/27 02:44:21;;;;;;;1.88;0.90;;;23.60;52.80;;;;;;5024608;28;20087;-67
2022/07/27 02:46:46;;;;;;;2.42;1.13;;;23.60;53.00;;;;;;5025247;28;20804;-67
2022/07/27 02:49:12;;;;;;;1.85;1.00;;;23.50;52.90;;;;;;5025961;28;20025;-68
2022/07/27 02:51:38;;;;;;;1.30;0.88;;;23.60;52.90;;;;;;5024446;28;20080;-67
2022/07/27 02:54:03;;;;;;;1.77;0.90;;;23.50;52.90;;;;;;5025651;28;20042;-67
2022/07/27 02:56:29;;;;;;;1.52;0.90;;;23.50;52.90;;;;;;5018492;28;20136;-67
2022/07/27 02:58:55;;;;;;;2.58;0.88;;;23.50;52.90;;;;;;5024661;28;20029;-67
2022/07/27 03:01:20;;;;;;;2.40;0.95;;;23.50;52.90;;;;;;5024367;28;20084;-67
2022/07/27 03:03:46;;;;;;;2.75;1.00;;;23.50;53.00;;;;;;5023977;28;20087;-67
2022/07/27 03:06:12;;;;;;;1.63;0.80;;;23.50;52.90;;;;;;5022685;28;20113;-67
2022/07/27 03:08:38;;;;;;;1.42;0.82;;;23.50;52.90;;;;;;5023886;28;20040;-67
2022/07/27 03:11:04;;;;;;;2.10;1.05;;;23.50;53.00;;;;;;5024566;28;20038;-67
2022/07/27 03:13:30;;;;;;;1.27;0.85;;;23.50;53.00;;;;;;5018209;28;20121;-67
2022/07/27 03:15:56;;;;;;;1.73;0.98;;;23.50;53.00;;;;;;5023829;28;20425;-67
2022/07/27 03:18:21;;;;;;;2.03;0.90;;;23.50;53.00;;;;;;5023944;28;20083;-67
2022/07/27 03:20:47;;;;;;;2.78;1.30;;;23.50;53.00;;;;;;5025941;28;20025;-67
2022/07/27 03:23:12;;;;;;;1.75;0.80;;;23.40;53.00;;;;;;5024961;28;20552;-67
2022/07/27 03:25:38;;;;;;;1.27;0.80;;;23.50;53.10;;;;;;5024547;28;20483;-67
2022/07/27 03:28:04;;;;;;;2.58;1.05;;;23.40;53.00;;;;;;5026841;28;20033;-67
2022/07/27 03:30:30;;;;;;;2.63;1.15;;;23.40;53.00;;;;;;5028496;28;20037;-67
2022/07/27 03:32:56;;;;;;;1.45;0.80;;;23.40;53.00;;;;;;5031690;28;20073;-67
2022/07/27 03:35:22;;;;;;;1.55;0.90;;;23.40;53.10;;;;;;5029226;28;20056;-67
2022/07/27 03:37:47;;;;;;;1.35;0.85;;;23.40;53.10;;;;;;5029239;28;20056;-67
2022/07/27 03:40:13;;;;;;;2.08;0.80;;;23.40;53.10;;;;;;5030563;28;20025;-67
2022/07/27 03:42:39;;;;;;;3.33;1.00;;;23.40;53.10;;;;;;5027017;28;20043;-67
2022/07/27 03:45:05;;;;;;;1.33;0.80;;;23.40;53.10;;;;;;5026776;28;20025;-68
2022/07/27 03:47:30;;;;;;;1.52;0.95;;;23.40;53.20;;;;;;5027174;28;20413;-67
2022/07/27 03:49:56;;;;;;;1.83;1.00;;;23.40;53.20;;;;;;5026851;28;20044;-67
2022/07/27 03:52:22;;;;;;;2.65;1.00;;;23.40;53.20;;;;;;5025946;28;20076;-67
2022/07/27 03:54:47;;;;;;;1.48;0.93;;;23.40;53.20;;;;;;5026878;28;20037;-67
2022/07/27 03:57:13;;;;;;;1.13;0.75;;;23.30;53.10;;;;;;5027737;28;20037;-67
2022/07/27 03:59:39;;;;;;;1.27;0.70;;;23.30;53.20;;;;;;5026689;28;20030;-67
2022/07/27 04:02:05;;;;;;;1.92;0.82;;;23.30;53.20;;;;;;5025464;28;20018;-67
2022/07/27 04:04:30;;;;;;;1.48;0.82;;;23.30;53.20;;;;;;5027422;28;20029;-68
2022/07/27 04:06:56;;;;;;;1.83;0.90;;;23.30;53.30;;;;;;5026656;28;20061;-67
2022/07/27 04:09:22;;;;;;;1.65;0.82;;;23.30;53.20;;;;;;5027307;28;20025;-67
2022/07/27 04:11:47;;;;;;;2.28;0.77;;;23.30;53.30;;;;;;5027996;28;20063;-67
2022/07/27 04:14:13;;;;;;;2.15;1.00;;;23.30;53.30;;;;;;5025930;28;20068;-67
2022/07/27 04:16:40;;;;;;;2.20;0.90;;;23.30;53.30;;;;;;5026967;28;20499;-68
2022/07/27 04:19:05;;;;;;;1.05;0.90;;;23.30;53.20;;;;;;5030095;28;20441;-67
2022/07/27 04:21:31;;;;;;;3.92;0.90;;;23.20;53.20;;;;;;5026694;28;20022;-67
2022/07/27 04:23:57;;;;;;;2.20;1.10;;;23.20;53.20;;;;;;5029010;28;20037;-68
2022/07/27 04:26:22;;;;;;;0.90;0.77;;;23.20;53.20;;;;;;5027951;28;20394;-68
2022/07/27 04:28:51;;;;;;;2.25;0.77;;;23.20;53.20;;;;;;5029418;28;20026;-67
2022/07/27 04:31:17;;;;;;;2.33;0.90;;;23.20;53.30;;;;;;5024033;28;20029;-68
2022/07/27 04:33:44;;;;;;;2.50;0.80;;;23.20;53.30;;;;;;5025083;28;20038;-68
2022/07/27 04:36:11;;;;;;;4.05;0.80;;;23.20;53.30;;;;;;5029005;28;20033;-67
2022/07/27 04:38:37;;;;;;;3.35;0.90;;;23.20;53.40;;;;;;5027688;28;20026;-68
2022/07/27 04:41:02;;;;;;;1.70;0.90;;;23.20;53.30;;;;;;5026811;28;20075;-68
2022/07/27 04:43:28;;;;;;;1.30;0.70;;;23.20;53.40;;;;;;5026476;28;20021;-68
2022/07/27 04:45:54;;;;;;;1.92;0.98;;;23.20;53.40;;;;;;5026536;28;20033;-67
2022/07/27 04:48:19;;;;;;;1.27;0.70;;;23.20;53.40;;;;;;5027439;28;20022;-67
2022/07/27 04:50:46;;;;;;;2.45;0.80;;;23.10;53.40;;;;;;5024186;28;20054;-67
2022/07/27 04:53:12;;;;;;;2.47;0.98;;;23.10;53.40;;;;;;5029133;28;20041;-67
2022/07/27 04:55:41;;;;;;;2.25;0.98;;;23.10;53.50;;;;;;5025490;28;20029;-67
2022/07/27 04:58:08;;;;;;;2.17;0.90;;;23.10;53.40;;;;;;5028215;28;20022;-67
2022/07/27 05:00:33;;;;;;;1.95;0.93;;;23.10;53.50;;;;;;5027222;28;20064;-67
2022/07/27 05:02:59;;;;;;;3.22;1.00;;;23.10;53.40;;;;;;5026205;28;20087;-67
2022/07/27 05:05:25;;;;;;;2.10;0.90;;;23.10;53.50;;;;;;5028069;28;20100;-67
2022/07/27 05:07:50;;;;;;;2.78;1.05;;;23.10;53.50;;;;;;5026659;28;20038;-67
2022/07/27 05:10:17;;;;;;;4.00;1.00;;;23.10;53.60;;;;;;5024330;28;20029;-67
2022/07/27 05:12:42;;;;;;;3.65;0.90;;;23.10;53.50;;;;;;5025288;28;20049;-67
2022/07/27 05:15:09;;;;;;;1.60;0.68;;;23.10;53.40;;;;;;5024167;28;20059;-67
2022/07/27 05:17:34;;;;;;;1.60;0.90;;;23.10;53.50;;;;;;5025896;28;20033;-67
2022/07/27 05:20:00;;;;;;;4.72;1.02;;;23.10;53.60;;;;;;5024244;28;20508;-67
2022/07/27 05:22:26;;;;;;;5.35;0.95;;;23.10;53.70;;;;;;5025628;28;20401;-67
2022/07/27 05:24:51;;;;;;;3.20;1.00;;;23.10;53.70;;;;;;5025610;28;20025;-67
2022/07/27 05:27:17;;;;;;;3.10;0.98;;;23.10;53.80;;;;;;5023665;28;20033;-67
2022/07/27 05:29:43;;;;;;;3.60;1.17;;;23.10;53.70;;;;;;5020733;28;20450;-67
2022/07/27 05:32:08;;;;;;;3.15;1.00;;;23.10;53.80;;;;;;5026115;28;20040;-67
2022/07/27 05:34:34;;;;;;;1.83;1.10;;;23.10;53.80;;;;;;5026555;28;20086;-67
2022/07/27 05:37:00;;;;;;;1.85;0.80;;;23.10;53.80;;;;;;5027640;28;20489;-66
2022/07/27 05:39:25;;;;;;;2.90;0.98;;;23.10;53.80;;;;;;5022363;28;20521;-67
2022/07/27 05:41:51;;;;;;;3.22;0.90;;;23.10;53.80;;;;;;5026381;28;20028;-67
2022/07/27 05:44:17;;;;;;;3.65;1.00;;;23.10;53.90;;;;;;5025995;28;20538;-67
2022/07/27 05:46:42;;;;;;;3.35;1.10;;;23.10;53.80;;;;;;5027273;28;20030;-67
2022/07/27 05:49:08;;;;;;;2.78;1.02;;;23.10;53.90;;;;;;5025136;28;22373;-67
2022/07/27 05:51:34;;;;;;;1.80;1.10;;;23.00;53.90;;;;;;5025754;28;20045;-66
2022/07/27 05:54:00;;;;;;;4.72;1.23;;;23.10;54.00;;;;;;5025487;28;20045;-68
2022/07/27 05:56:26;;;;;;;3.80;1.17;;;23.00;53.90;;;;;;5026185;28;20104;-67
2022/07/27 05:58:52;;;;;;;4.55;1.08;;;23.00;53.90;;;;;;5027257;28;20037;-68
2022/07/27 06:01:18;;;;;;;2.58;1.00;;;23.00;53.90;;;;;;5025091;28;20028;-68
2022/07/27 06:03:43;;;;;;;7.72;1.17;;;23.10;54.00;;;;;;5025219;28;20033;-68
2022/07/27 06:08:53;;;;;;;2.20;0.95;;;23.00;53.90;;;;;;5026754;28;20039;-68
2022/07/27 06:11:19;;;;;;;4.80;1.10;;;23.00;53.90;;;;;;5026955;28;20018;-68
2022/07/27 06:13:45;;;;;;;4.38;1.30;;;23.00;53.90;;;;;;5026060;28;20091;-68
2022/07/27 06:16:10;;;;;;;2.70;1.00;;;23.00;53.90;;;;;;5026699;28;20017;-67
2022/07/27 06:18:36;;;;;;;2.53;0.98;;;23.00;53.90;;;;;;5025202;28;20030;-68
2022/07/27 06:21:02;;;;;;;3.92;1.10;;;23.00;53.90;;;;;;5027719;28;20029;-68
2022/07/27 06:23:28;;;;;;;3.38;1.20;;;23.00;53.80;;;;;;5026600;28;20037;-68
2022/07/27 06:25:54;;;;;;;2.78;1.08;;;23.00;53.80;;;;;;5025027;28;20431;-68
2022/07/27 06:28:20;;;;;;;2.10;1.00;;;23.00;53.80;;;;;;5027341;28;20029;-68
2022/07/27 06:30:46;;;;;;;2.72;0.90;;;23.00;53.80;;;;;;5025531;28;20097;-68
2022/07/27 06:33:12;;;;;;;2.60;0.85;;;23.00;53.80;;;;;;5024911;28;20067;-68
2022/07/27 06:35:38;;;;;;;3.92;0.95;;;23.00;53.80;;;;;;5025063;28;20065;-68
2022/07/27 06:38:04;;;;;;;3.22;1.02;;;23.00;53.80;;;;;;5025459;28;20125;-68
2022/07/27 06:40:31;;;;;;;2.40;0.85;;;23.00;53.80;;;;;;5025813;28;20032;-68
2022/07/27 06:42:57;;;;;;;3.78;1.05;;;23.00;53.80;;;;;;5025400;28;20101;-68
2022/07/27 06:45:23;;;;;;;3.03;1.20;;;23.00;53.80;;;;;;5024151;28;20091;-68
2022/07/27 06:47:49;;;;;;;3.60;1.00;;;23.00;53.90;;;;;;5025748;28;20025;-68
2022/07/27 06:50:16;;;;;;;3.08;1.00;;;23.00;53.70;;;;;;5024933;28;20101;-67
2022/07/27 06:52:42;;;;;;;3.42;0.90;;;23.00;53.70;;;;;;5026763;28;20037;-68
2022/07/27 06:55:08;;;;;;;3.75;1.05;;;23.00;53.70;;;;;;5025813;28;20080;-68
2022/07/27 06:57:34;;;;;;;4.82;1.20;;;23.00;53.70;;;;;;5026083;28;20033;-68
2022/07/27 06:59:59;;;;;;;3.35;1.13;;;23.00;53.70;;;;;;5026012;28;20031;-68
2022/07/27 07:02:25;;;;;;;1.75;0.90;;;23.00;53.70;;;;;;5027030;28;20064;-68
2022/07/27 07:04:51;;;;;;;2.42;0.80;;;23.00;53.70;;;;;;5029100;28;20034;-67
2022/07/27 07:07:17;;;;;;;2.15;1.10;;;23.00;53.70;;;;;;5029358;28;20026;-68
2022/07/27 07:09:42;;;;;;;3.25;0.90;;;23.00;53.70;;;;;;5029396;28;20435;-68
2022/07/27 07:12:08;;;;;;;1.95;0.82;;;23.00;53.70;;;;;;5029681;28;20022;-68
2022/07/27 07:14:33;;;;;;;1.98;0.82;;;23.00;53.70;;;;;;5029505;28;20041;-68
2022/07/27 07:17:00;;;;;;;3.35;1.00;;;23.00;54.70;;;;;;5029091;28;20104;-68
2022/07/27 07:19:26;;;;;;;2.88;1.00;;;23.00;53.80;;;;;;5029153;28;20056;-68
2022/07/27 07:21:52;;;;;;;2.42;1.02;;;23.00;53.70;;;;;;5028354;28;20071;-68
2022/07/27 07:24:18;;;;;;;3.08;1.10;;;23.00;53.70;;;;;;5027799;28;20042;-68
2022/07/27 07:26:44;;;;;;;2.88;1.08;;;23.00;53.70;;;;;;5028521;28;20026;-68
2022/07/27 07:29:09;;;;;;;3.95;1.00;;;23.00;53.70;;;;;;5025290;28;20037;-68
2022/07/27 07:31:36;;;;;;;3.17;1.10;;;23.00;53.70;;;;;;5026828;28;20029;-68
2022/07/27 07:34:02;;;;;;;1.27;0.82;;;23.00;53.70;;;;;;5060164;28;20076;-68
2022/07/27 07:36:28;;;;;;;3.28;1.10;;;23.00;53.70;;;;;;5029377;28;20045;-68
2022/07/27 07:38:54;;;;;;;3.40;0.85;;;23.00;53.70;;;;;;5028874;28;20043;-67
2022/07/27 07:41:21;;;;;;;2.40;0.90;;;23.00;53.60;;;;;;5029092;28;20030;-68
2022/07/27 07:43:47;;;;;;;3.45;0.90;;;23.00;53.60;;;;;;5026832;28;20514;-67
2022/07/27 07:46:12;;;;;;;1.75;1.10;;;23.00;53.70;;;;;;5027827;28;20045;-67
2022/07/27 07:48:38;;;;;;;2.17;1.00;;;23.00;53.50;;;;;;5027953;28;20477;-68
2022/07/27 07:51:04;;;;;;;1.52;1.00;;;23.00;53.50;;;;;;5025557;28;20506;-68
2022/07/27 07:53:30;;;;;;;2.28;0.93;;;23.00;53.60;;;;;;5028798;28;20521;-68
2022/07/27 07:55:56;;;;;;;2.42;0.90;;;23.00;53.50;;;;;;5027486;28;20485;-68
2022/07/27 07:58:22;;;;;;;3.10;0.90;;;23.00;53.50;;;;;;5028387;28;20025;-68
2022/07/27 08:00:48;;;;;;;3.58;1.10;;;23.00;53.50;;;;;;5026789;28;20030;-68
2022/07/27 08:03:14;;;;;;;2.97;1.10;;;23.00;53.50;;;;;;5028321;28;20040;-68
2022/07/27 08:05:39;;;;;;;4.55;0.90;;;23.00;53.50;;;;;;5028999;28;20060;-67
2022/07/27 08:08:05;;;;;;;1.90;0.90;;;23.00;53.50;;;;;;5028779;28;20166;-68
2022/07/27 08:10:31;;;;;;;2.28;1.00;;;23.00;53.60;;;;;;5027837;28;20397;-68
2022/07/27 08:12:56;;;;;;;1.38;0.77;;;23.00;53.50;;;;;;5029114;28;20033;-68
2022/07/27 08:15:22;;;;;;;1.92;1.00;;;23.00;53.50;;;;;;5024693;28;20041;-68
2022/07/27 08:17:48;;;;;;;3.10;1.00;;;23.00;53.60;;;;;;5024557;28;20033;-68
2022/07/27 08:20:14;;;;;;;3.03;1.20;;;23.00;53.60;;;;;;5027877;28;20035;-68
2022/07/27 08:22:40;;;;;;;2.08;1.00;;;23.00;53.50;;;;;;5027735;28;20104;-68
2022/07/27 08:25:06;;;;;;;2.33;0.90;;;23.10;53.60;;;;;;5027943;28;20038;-68
2022/07/27 08:27:32;;;;;;;4.57;1.00;;;23.00;53.50;;;;;;5028269;28;20021;-68
2022/07/27 08:29:57;;;;;;;1.83;0.93;;;23.10;53.60;;;;;;5025422;28;20034;-68
2022/07/27 08:32:23;;;;;;;3.80;1.05;;;23.10;53.60;;;;;;5029188;28;20022;-68
2022/07/27 08:34:50;;;;;;;3.10;1.02;;;23.10;53.50;;;;;;5027450;28;20041;-67
2022/07/27 08:37:15;;;;;;;2.22;0.90;;;23.10;53.50;;;;;;5026447;28;20017;-68
2022/07/27 08:39:41;;;;;;;1.90;0.80;;;23.10;53.50;;;;;;5027834;28;20025;-68
2022/07/27 08:42:08;;;;;;;3.47;1.00;;;23.10;53.50;;;;;;5025621;28;20078;-64
2022/07/27 08:44:34;;;;;;;3.03;1.00;;;23.10;53.50;;;;;;5024608;28;20044;-68
2022/07/27 08:47:03;;;;;;;4.50;1.10;;;23.10;53.40;;;;;;5026145;28;20034;-68
2022/07/27 08:49:29;;;;;;;2.58;1.10;;;23.10;53.50;;;;;;5028280;28;20021;-68
2022/07/27 08:51:55;;;;;;;2.58;1.13;;;23.10;53.40;;;;;;5027900;28;20048;-68
2022/07/27 08:54:21;;;;;;;3.22;0.90;;;23.10;53.40;;;;;;5027210;28;20444;-67
2022/07/27 08:56:46;;;;;;;3.10;1.00;;;23.20;53.50;;;;;;5025476;28;20104;-68
2022/07/27 08:59:12;;;;;;;1.83;0.90;;;23.20;53.40;;;;;;5025838;28;20509;-68
2022/07/27 09:01:38;;;;;;;2.30;0.90;;;23.20;53.40;;;;;;5028641;28;20037;-67
2022/07/27 09:04:05;;;;;;;2.63;1.10;;;23.20;53.40;;;;;;5028069;28;20029;-68
2022/07/27 09:06:49;;;;;;;2.13;0.98;;;23.20;53.40;;;;;;5026483;28;20112;-68
2022/07/27 09:09:17;;;;;;;2.17;0.80;;;23.20;53.40;;;;;;5026411;28;20564;-68
2022/07/27 09:11:44;;;;;;;2.65;0.90;;;23.20;53.40;;;;;;5027150;28;20430;-68
2022/07/27 09:14:11;;;;;;;1.95;0.85;;;23.20;53.30;;;;;;5054245;28;20038;-67
2022/07/27 09:16:37;;;;;;;1.95;0.93;;;23.30;53.40;;;;;;5027418;28;20496;-68
2022/07/27 09:19:04;;;;;;;1.92;1.00;;;23.30;53.40;;;;;;5026071;28;20195;-68
2022/07/27 09:21:30;;;;;;;2.30;0.73;;;23.30;53.40;;;;;;5026094;28;20033;-67
2022/07/27 09:24:13;;;;;;;2.25;0.98;;;23.20;53.40;;;;;;5025900;28;21660;-68
2022/07/27 09:26:39;;;;;;;2.30;0.90;;;23.30;53.40;;;;;;5024205;28;20052;-68
2022/07/27 09:29:12;;;;;;;3.88;1.20;;;23.30;53.40;;;;;;5025610;28;20482;-68
2022/07/27 09:31:48;;;;;;;2.05;0.98;;;23.30;53.30;;;;;;5024708;28;20518;-68
2022/07/27 09:34:26;;;;;;;3.10;1.10;;;23.30;53.30;;;;;;5027377;28;20037;-68
2022/07/27 09:36:53;;;;;;;3.13;1.02;;;23.30;53.30;;;;;;5024465;28;20026;-68
2022/07/27 09:39:23;;;;;;;2.53;1.10;;;23.40;53.30;;;;;;5026053;28;20506;-68
2022/07/27 09:41:58;;;;;;;2.05;0.88;;;23.30;53.30;;;;;;5025855;28;20029;-68
2022/07/27 09:44:38;;;;;;;3.22;1.10;;;23.40;53.30;;;;;;5027301;28;20075;-68
2022/07/27 09:47:25;;;;;;;4.47;1.20;;;23.30;53.40;;;;;;5027365;28;20029;-68
2022/07/27 09:49:51;;;;;;;1.92;1.02;;;23.40;53.30;;;;;;5024692;28;20083;-68
2022/07/27 09:52:28;;;;;;;2.00;0.80;;;23.30;53.30;;;;;;5025470;28;20453;-68
2022/07/27 09:55:01;;;;;;;1.85;0.90;;;23.40;53.30;;;;;;5053869;28;20498;-68
2022/07/27 09:57:27;;;;;;;2.33;0.85;;;23.40;53.30;;;;;;5025868;28;20108;-68
2022/07/27 10:00:12;;;;;;;2.92;1.00;;;23.40;53.30;;;;;;5025341;28;20136;-68
2022/07/27 10:02:38;;;;;;;2.78;1.00;;;23.40;53.30;;;;;;5023509;28;20029;-68
2022/07/27 10:05:06;;;;;;;1.52;0.93;;;23.40;53.30;;;;;;5025034;28;20072;-68
2022/07/27 10:07:32;;;;;;;2.25;1.00;;;23.40;53.30;;;;;;5027459;28;20087;-67
2022/07/27 10:09:57;;;;;;;2.60;1.00;;;23.40;53.30;;;;;;5024734;28;20534;-68
2022/07/27 10:12:23;;;;;;;3.13;0.90;;;23.40;53.40;;;;;;5026731;28;20017;-68
2022/07/27 10:14:49;;;;;;;2.17;0.80;;;23.40;53.40;;;;;;5025708;28;20042;-68
2022/07/27 10:17:14;;;;;;;2.60;0.90;;;23.50;53.50;;;;;;5025966;28;20044;-68
2022/07/27 10:19:49;;;;;;;2.08;0.85;;;23.40;53.40;;;;;;5024688;28;20122;-68
2022/07/27 10:22:15;;;;;;;;;;;23.40;53.40;;;;;;5025932;28;20037;-67
2022/07/27 10:24:40;;;;;;;1.33;0.80;;;23.40;53.40;;;;;;5024634;28;19909;-68
2022/07/27 10:27:26;;;;;;;4.93;1.30;;;23.40;53.40;;;;;;5021430;28;20024;-68
2022/07/27 10:29:53;;;;;;;3.22;1.15;;;23.50;53.40;;;;;;5023011;28;20033;-68
2022/07/27 10:32:32;;;;;;;2.92;0.93;;;23.50;53.50;;;;;;5026269;28;20044;-68
2022/07/27 10:35:01;;;;;;;2.15;1.00;;;23.50;53.40;;;;;;5025431;28;20048;-68
2022/07/27 10:37:27;;;;;;;2.78;1.02;;;23.50;53.50;;;;;;5027478;28;20044;-68
2022/07/27 10:43:20;;;;;;;2.75;1.10;;;23.50;53.50;;;;;;5028952;28;20568;-67
2022/07/27 10:45:49;;;;;;;1.95;0.95;;;23.50;53.40;;;;;;5028433;28;20028;-68
2022/07/27 10:48:37;;;;;;;2.20;0.90;;;23.50;53.40;;;;;;5058519;28;20017;-68
2022/07/27 10:51:09;;;;;;;2.60;0.98;;;23.50;54.40;;;;;;5027159;28;20502;-68
2022/07/27 10:53:41;;;;;;;2.50;0.93;;;23.50;53.40;;;;;;5026797;28;20040;-67
2022/07/27 10:56:07;;;;;;;3.50;1.05;;;23.50;53.50;;;;;;5029947;28;20014;-68
2022/07/27 10:58:32;;;;;;;2.17;0.90;;;23.50;53.40;;;;;;5030202;28;20033;-68
2022/07/27 11:00:59;;;;;;;1.98;0.82;;;23.60;53.50;;;;;;5029274;28;20021;-68
2022/07/27 11:03:31;;;;;;;2.35;0.93;;;23.50;53.40;;;;;;5028440;28;20025;-68
2022/07/27 11:06:00;;;;;;;2.53;1.00;;;23.50;53.40;;;;;;5029539;28;20043;-68
2022/07/27 11:08:31;;;;;;;2.63;0.85;;;23.60;53.40;;;;;;5029358;28;20029;-68
2022/07/27 11:10:57;;;;;;;1.80;0.90;;;23.60;53.40;;;;;;5028570;28;20025;-68
2022/07/27 11:13:23;;;;;;;4.22;1.05;;;23.60;53.30;;;;;;5029960;28;20075;-68
2022/07/27 11:15:55;;;;;;;2.65;1.02;;;23.60;53.30;;;;;;5029254;28;20026;-68
2022/07/27 11:18:25;;;;;;;2.28;0.95;;;23.70;53.20;;;;;;5025518;28;20033;-68
2022/07/27 11:20:50;;;;;;;1.95;1.00;;;23.60;53.20;;;;;;5029277;28;20025;-68
2022/07/27 11:23:20;;;;;;;2.70;1.10;;;23.60;53.30;;;;;;5029809;28;20466;-68
2022/07/27 11:25:58;;;;;;;2.17;0.90;;;23.60;53.30;;;;;;5029726;28;20022;-69
2022/07/27 11:28:31;;;;;;;1.90;0.90;;;23.60;53.30;;;;;;5026480;28;20034;-68
2022/07/27 11:30:57;;;;;;;1.80;0.88;;;23.60;53.30;;;;;;5027693;28;20437;-69
2022/07/27 11:33:23;;;;;;;2.13;0.90;;;23.60;53.30;;;;;;5028122;28;20041;-68
2022/07/27 11:35:58;;;;;;;3.30;0.95;;;23.60;53.30;;;;;;5030158;28;20029;-68
2022/07/27 11:38:24;;;;;;;1.38;0.77;;;23.60;53.40;;;;;;5029099;28;20036;-68
2022/07/27 11:40:51;;;;;;;1.83;0.82;;;23.60;53.40;;;;;;5028154;28;20021;-67
2022/07/27 11:43:33;;;;;;;2.30;1.13;;;23.60;53.40;;;;;;5028979;28;20108;-68
2022/07/27 11:46:15;;;;;;;2.15;1.00;;;23.60;53.40;;;;;;5025853;28;20039;-68
2022/07/27 11:48:47;;;;;;;1.90;0.80;;;23.60;53.40;;;;;;5025456;28;20033;-69
2022/07/27 11:51:16;;;;;;;2.13;0.93;;;23.60;53.40;;;;;;5028274;28;20053;-69
2022/07/27 11:53:42;;;;;;;1.98;1.00;;;23.60;53.40;;;;;;5028363;28;20063;-68
2022/07/27 11:56:08;;;;;;;2.25;0.90;;;23.60;53.40;;;;;;5058218;28;20106;-68
2022/07/27 11:58:53;;;;;;;2.25;1.10;;;23.60;53.40;;;;;;5028823;28;20026;-68
2022/07/27 12:01:29;;;;;;;2.03;0.80;;;23.60;53.40;;;;;;5053593;28;20044;-68
2022/07/27 12:04:06;;;;;;;2.20;0.90;;;23.60;53.40;;;;;;5023446;28;20533;-69
2022/07/27 12:06:33;;;;;;;3.22;1.00;;;23.60;53.40;;;;;;5023600;28;20529;-68
2022/07/27 12:09:00;;;;;;;3.17;1.00;;;23.60;53.40;;;;;;5029297;28;20034;-69
2022/07/27 12:11:43;;;;;;;1.40;0.90;;;23.60;53.30;;;;;;5027591;28;20490;-68
2022/07/27 12:14:12;;;;;;;2.20;0.90;;;23.60;53.30;;;;;;5024638;28;20534;-68
2022/07/27 12:16:38;;;;;;;2.70;1.10;;;23.60;53.30;;;;;;5028399;28;20616;-68
2022/07/27 12:19:04;;;;;;;2.55;1.02;;;23.60;53.30;;;;;;5027270;28;20264;-68
2022/07/27 12:21:30;;;;;;;2.13;1.00;;;23.60;53.30;;;;;;5028931;28;20033;-68
2022/07/27 12:23:57;;;;;;;2.22;1.00;;;23.70;54.40;;;;;;5027039;28;20026;-68
2022/07/27 12:26:24;;;;;;;1.95;1.00;;;23.70;53.30;;;;;;5027894;28;20022;-68
2022/07/27 12:29:09;;;;;;;1.48;1.00;;;23.70;53.30;;;;;;5024898;28;20563;-68
2022/07/27 12:31:36;;;;;;;2.17;1.10;;;23.60;53.30;;;;;;5027432;28;20032;-68
2022/07/27 12:34:04;;;;;;;2.47;1.10;;;23.70;53.30;;;;;;5028729;28;20041;-68
2022/07/27 12:36:30;;;;;;;1.83;0.95;;;23.70;53.30;;;;;;5026666;28;20025;-68
2022/07/27 12:38:57;;;;;;;3.53;1.20;;;23.70;53.20;;;;;;5029396;28;20036;-68
2022/07/27 12:41:28;;;;;;;2.70;1.00;;;23.70;53.20;;;;;;5027906;28;20057;-68
2022/07/27 12:44:06;;;;;;;2.25;1.00;;;23.70;53.20;;;;;;5026973;28;20034;-68
2022/07/27 12:46:32;;;;;;;2.20;0.80;;;23.70;53.20;;;;;;5027685;28;20056;-68
2022/07/27 12:48:57;;;;;;;1.90;1.00;;;23.70;53.10;;;;;;5026235;28;20087;-68
2022/07/27 12:51:23;;;;;;;3.10;0.90;;;23.70;53.20;;;;;;5026139;28;20048;-68
2022/07/27 12:53:49;;;;;;;2.58;1.08;;;23.70;53.10;;;;;;5026269;28;20148;-68